Time;durP1;ratioP1;P1;durP2;ratioP2;P2;SDS_P1;SDS_P2;PMS_P1;PMS_P2;Temp;Humidity;BMP_temperature;BMP_pressure;BME280_temperature;BME280_humidity;BME280_pressure;Samples;Min_cycle;Max_cycle;Signal;HPM_P1;HPM_P2
2022/10/20 00:01:27;;;;;;;12.38;8.88;;;13.40;99.90;;;16.28;57.55;97912.97;4928967;29;20052;-48
2022/10/20 00:03:56;;;;;;;13.38;9.10;;;13.50;99.90;;;16.28;57.41;97915.66;4911723;29;20059;-47
2022/10/20 00:06:30;;;;;;;13.60;8.68;;;13.50;99.90;;;16.24;57.48;97915.22;4928304;29;20055;-51
2022/10/20 00:09:01;;;;;;;13.15;8.15;;;13.40;99.90;;;16.26;57.53;97906.97;4925673;29;20066;-47
2022/10/20 00:11:30;;;;;;;15.25;7.93;;;13.30;99.90;;;16.24;57.40;97901.78;4928678;29;20054;-49
2022/10/20 00:14:00;;;;;;;11.18;8.60;;;13.30;99.90;;;16.22;57.55;97885.03;4928528;29;20056;-50
2022/10/20 00:16:30;;;;;;;12.18;7.88;;;13.30;99.90;;;16.22;57.57;97893.09;4927961;29;20062;-51
2022/10/20 00:18:58;;;;;;;12.93;8.75;;;13.30;99.90;;;16.18;57.46;97891.81;4911993;29;20349;-52
2022/10/20 00:21:28;;;;;;;11.07;8.32;;;13.30;99.90;;;16.16;57.66;97896.53;4928326;29;20056;-47
2022/10/20 00:24:00;;;;;;;13.40;8.48;;;13.40;99.90;;;16.11;57.59;97902.50;4911577;29;20063;-53
2022/10/20 00:26:30;;;;;;;11.35;8.00;;;13.30;99.90;;;16.11;57.83;97898.97;4927866;29;20044;-50
2022/10/20 00:29:02;;;;;;;11.73;8.55;;;13.30;99.90;;;16.13;57.54;97905.81;4928153;29;20064;-47
2022/10/20 00:31:30;;;;;;;10.98;7.97;;;13.30;99.90;;;16.12;57.58;97897.94;4928510;29;20070;-48
2022/10/20 00:33:58;;;;;;;13.63;8.52;;;13.30;99.90;;;16.13;57.77;97895.06;4928212;29;20253;-47
2022/10/20 00:36:26;;;;;;;13.65;7.82;;;13.30;99.90;;;16.15;57.72;97897.59;4910928;29;20055;-45
2022/10/20 00:38:59;;;;;;;11.15;8.60;;;13.40;99.90;;;16.16;57.76;97901.09;4927677;29;20040;-47
2022/10/20 00:41:28;;;;;;;11.93;8.85;;;13.40;99.90;;;16.17;57.49;97902.75;4927936;29;20051;-47
2022/10/20 00:44:47;;;;;;;13.52;8.48;;;13.30;99.90;;;16.14;57.64;97901.28;4928045;29;20048;-46
2022/10/20 00:47:33;;;;;;;10.75;8.32;;;13.30;99.90;;;16.18;57.52;97896.34;4926976;29;20078;-45
2022/10/20 00:50:30;;;;;;;15.77;8.38;;;13.30;99.90;;;16.11;57.36;97890.91;4926303;29;20090;-47
2022/10/20 00:53:00;;;;;;;13.27;9.10;;;13.30;99.90;;;16.13;57.72;97883.50;4912027;29;20070;-45
2022/10/20 00:55:32;;;;;;;10.38;8.35;;;13.30;99.90;;;16.10;57.69;97873.97;4910834;29;20052;-46
2022/10/20 00:58:02;;;;;;;11.73;9.13;;;13.40;99.90;;;16.12;57.82;97866.53;4927509;29;20050;-46
2022/10/20 01:00:30;;;;;;;11.93;7.80;;;13.30;99.90;;;16.11;57.56;97859.53;4910918;29;20054;-46
2022/10/20 01:03:01;;;;;;;13.20;9.02;;;13.30;99.90;;;16.09;57.80;97856.19;4910538;29;20066;-44
2022/10/20 01:05:29;;;;;;;12.07;9.02;;;13.20;99.90;;;16.07;57.57;97858.25;4910712;29;20048;-45
2022/10/20 01:07:57;;;;;;;9.35;7.30;;;13.10;99.90;;;16.02;57.43;97854.47;4927654;29;20253;-46
2022/10/20 01:10:31;;;;;;;12.45;9.90;;;13.00;99.90;;;16.02;57.46;97841.88;4927175;29;20227;-46
2022/10/20 01:13:26;;;;;;;;;;;13.00;99.90;;;16.11;56.99;97846.09;4912090;29;20350;-47
2022/10/20 01:16:12;;;;;;;11.18;7.75;;;13.00;99.90;;;16.04;57.10;97841.69;4927030;29;19925;-44
2022/10/20 01:19:24;;;;;;;10.65;7.82;;;12.90;99.90;;;15.96;57.28;97841.81;4912013;29;20052;-49
2022/10/20 01:22:26;;;;;;;15.48;8.27;;;13.00;99.90;;;15.97;57.23;97835.41;4902198;29;20070;-46
2022/10/20 01:25:07;;;;;;;11.25;7.78;;;13.00;99.90;;;15.94;57.50;97844.69;4923511;29;20250;-44
2022/10/20 01:28:05;;;;;;;14.32;7.50;;;13.00;99.90;;;15.92;57.52;97836.81;4927088;29;20052;-46
2022/10/20 01:30:41;;;;;;;12.57;8.07;;;13.00;99.90;;;15.93;57.28;97843.81;4908926;29;20116;-45
2022/10/20 01:33:49;;;;;;;11.43;8.88;;;13.00;99.90;;;15.95;57.33;97832.91;4910930;29;20368;-46
2022/10/20 01:36:34;;;;;;;11.30;8.25;;;13.00;99.90;;;15.94;57.28;97834.75;4926489;29;20060;-48
2022/10/20 01:39:12;;;;;;;10.75;7.68;;;12.90;99.90;;;15.94;57.44;97829.41;4921912;29;20269;-46
2022/10/20 01:41:53;;;;;;;14.32;8.90;;;13.00;99.90;;;15.93;57.35;97825.03;4926369;29;20048;-45
2022/10/20 01:44:25;;;;;;;14.63;8.38;;;13.00;99.90;;;15.92;57.44;97819.88;4925259;29;20066;-47
2022/10/20 01:46:55;;;;;;;14.82;8.77;;;13.00;99.90;;;15.92;57.61;97827.94;4925838;29;20044;-46
2022/10/20 01:49:24;;;;;;;12.23;9.73;;;13.00;99.90;;;15.92;57.31;97819.88;4925737;29;20058;-48
2022/10/20 01:51:53;;;;;;;13.35;9.82;;;12.90;99.90;;;15.88;57.39;97814.06;4925618;29;20249;-47
2022/10/20 01:54:27;;;;;;;19.27;9.30;;;12.90;99.90;;;15.88;57.31;97813.22;4925033;29;20062;-45
2022/10/20 01:57:41;;;;;;;13.88;9.02;;;12.90;99.90;;;15.86;57.06;97812.59;4925082;29;20056;-45
2022/10/20 02:00:13;;;;;;;11.63;8.25;;;12.80;99.90;;;15.86;57.12;97802.69;4926759;29;20226;-45
2022/10/20 02:03:02;;;;;;;12.60;8.63;;;12.80;99.90;;;15.82;57.22;97790.66;4926369;29;20054;-46
2022/10/20 02:06:15;;;;;;;14.80;9.00;;;12.80;99.90;;;15.76;57.28;97796.81;4926264;29;20338;-48
2022/10/20 02:08:55;;;;;;;14.35;9.32;;;12.80;99.90;;;15.77;56.96;97795.75;4915150;29;20056;-50
2022/10/20 02:11:47;;;;;;;17.55;9.20;;;12.70;99.90;;;15.71;57.19;97788.44;4925462;29;20048;-46
2022/10/20 02:14:19;;;;;;;12.15;9.20;;;12.60;99.90;;;15.66;57.15;97788.19;4924826;29;20055;-45
2022/10/20 02:16:53;;;;;;;13.93;8.55;;;12.60;99.90;;;15.61;57.20;97785.25;4925441;29;20082;-45
2022/10/20 02:19:25;;;;;;;13.70;9.32;;;12.50;99.90;;;15.56;57.30;97781.25;4925266;29;20055;-46
2022/10/20 02:21:56;;;;;;;12.15;8.82;;;12.50;99.90;;;15.54;57.15;97775.25;4925241;29;20054;-48
2022/10/20 02:24:33;;;;;;;14.15;8.90;;;12.50;99.90;;;15.50;56.97;97763.25;4924657;29;20396;-44
2022/10/20 02:27:23;;;;;;;13.00;9.38;;;12.40;99.90;;;15.42;57.20;97766.03;4924566;29;20249;-46
2022/10/20 02:30:15;;;;;;;14.13;8.55;;;12.30;99.90;;;15.38;57.13;97775.50;4925083;29;20052;-47
2022/10/20 02:32:50;;;;;;;11.52;8.57;;;12.30;99.90;;;15.39;57.29;97779.81;4924821;29;20060;-47
2022/10/20 02:35:31;;;;;;;17.30;9.43;;;12.30;99.90;;;15.42;57.20;97773.28;4924881;29;20056;-46
2022/10/20 02:37:59;;;;;;;15.30;9.32;;;12.40;99.90;;;15.42;57.21;97771.41;4924671;29;20353;-47
2022/10/20 02:40:27;;;;;;;14.23;9.95;;;12.40;99.90;;;15.45;57.68;97773.72;4926016;29;20052;-46
2022/10/20 02:42:55;;;;;;;15.07;10.07;;;12.50;99.90;;;15.50;57.49;97773.97;4926071;29;20250;-49
2022/10/20 02:45:23;;;;;;;14.48;10.18;;;12.50;99.90;;;15.50;57.49;97781.19;4925601;29;20048;-47
2022/10/20 02:47:51;;;;;;;24.88;10.38;;;12.50;99.90;;;15.51;57.47;97772.97;4926014;29;20050;-50
2022/10/20 02:50:18;;;;;;;22.45;11.43;;;12.50;99.90;;;15.54;57.49;97772.56;4925670;29;20051;-46
2022/10/20 02:52:46;;;;;;;20.25;11.13;;;12.50;99.90;;;15.56;57.48;97767.00;4925676;29;20055;-46
2022/10/20 02:55:14;;;;;;;13.85;9.85;;;12.50;99.90;;;15.56;57.53;97762.47;4925044;29;20044;-46
2022/10/20 02:57:42;;;;;;;15.15;10.00;;;12.60;99.90;;;15.56;57.62;97764.34;4925991;29;20060;-46
2022/10/20 03:00:11;;;;;;;14.90;9.90;;;12.70;99.90;;;15.57;57.98;97766.00;4925697;29;20040;-47
2022/10/20 03:02:39;;;;;;;15.02;9.48;;;12.70;99.90;;;15.58;57.90;97766.84;4925898;29;20052;-48
2022/10/20 03:05:07;;;;;;;13.93;8.82;;;12.70;99.90;;;15.61;57.95;97761.09;4925266;29;20060;-49
2022/10/20 03:07:35;;;;;;;16.13;9.82;;;12.70;99.90;;;15.63;57.63;97767.09;4925279;29;20239;-45
2022/10/20 03:10:05;;;;;;;14.55;10.00;;;12.70;99.90;;;15.64;57.78;97756.16;4923516;29;20062;-46
2022/10/20 03:12:33;;;;;;;14.15;8.98;;;12.80;99.90;;;15.65;57.75;97757.00;4924818;29;20058;-46
2022/10/20 03:15:01;;;;;;;14.98;10.15;;;12.80;99.90;;;15.63;57.76;97757.19;4925223;29;20047;-45
2022/10/20 03:17:28;;;;;;;16.15;10.45;;;12.70;99.90;;;15.62;57.77;97762.75;4925650;29;20051;-46
2022/10/20 03:19:56;;;;;;;15.95;10.10;;;12.60;99.90;;;15.63;57.68;97759.88;4925447;29;20040;-45
2022/10/20 03:22:24;;;;;;;19.58;10.68;;;12.60;99.90;;;15.63;57.82;97751.81;4925049;29;20058;-47
2022/10/20 03:24:52;;;;;;;13.32;10.82;;;12.70;99.90;;;15.64;57.55;97764.22;4925104;29;20044;-45
2022/10/20 03:27:20;;;;;;;15.00;10.55;;;12.70;99.90;;;15.63;57.53;97761.75;4925366;29;20063;-49
2022/10/20 03:29:48;;;;;;;18.27;10.77;;;12.60;99.90;;;15.62;57.58;97768.94;4925582;29;20350;-45
2022/10/20 03:32:16;;;;;;;16.45;10.45;;;12.60;99.90;;;15.64;57.32;97763.38;4924059;29;20060;-45
2022/10/20 03:34:44;;;;;;;15.25;11.48;;;12.60;99.90;;;15.61;57.41;97764.59;4924889;29;20048;-45
2022/10/20 03:37:11;;;;;;;14.43;10.02;;;12.60;99.90;;;15.59;57.34;97757.78;4925386;29;20072;-46
2022/10/20 03:39:40;;;;;;;15.68;9.40;;;12.60;99.90;;;15.63;57.45;97756.38;4925389;29;20044;-46
2022/10/20 03:42:07;;;;;;;15.18;11.25;;;12.60;99.90;;;15.64;57.40;97753.47;4925225;29;20064;-45
2022/10/20 03:44:35;;;;;;;17.52;11.32;;;12.70;99.90;;;15.67;57.50;97741.53;4924763;29;20044;-46
2022/10/20 03:47:03;;;;;;;15.05;10.82;;;12.60;99.90;;;15.66;57.49;97742.56;4925585;29;20056;-45
2022/10/20 03:49:32;;;;;;;13.73;9.65;;;12.60;99.90;;;15.65;57.39;97736.38;4925468;29;20052;-46
2022/10/20 03:52:00;;;;;;;17.70;10.57;;;12.60;99.90;;;15.64;57.43;97737.38;4925288;29;20055;-46
2022/10/20 03:54:28;;;;;;;19.17;10.55;;;12.60;99.90;;;15.63;57.26;97734.91;4924960;29;20048;-45
2022/10/20 03:56:56;;;;;;;14.00;9.82;;;12.60;99.90;;;15.62;57.41;97738.59;4924690;29;20254;-44
2022/10/20 03:59:24;;;;;;;15.55;9.18;;;12.50;99.90;;;15.61;57.32;97736.94;4925368;29;20075;-46
2022/10/20 04:01:57;;;;;;;14.18;9.75;;;12.50;99.90;;;15.61;57.38;97735.09;4927198;29;20054;-46
2022/10/20 04:04:25;;;;;;;13.98;8.80;;;12.60;99.90;;;15.62;57.46;97734.06;4928394;29;20044;-45
2022/10/20 04:06:52;;;;;;;15.57;9.48;;;12.60;99.90;;;15.65;57.46;97743.59;4911864;29;20376;-44
2022/10/20 04:09:20;;;;;;;12.25;9.43;;;12.60;99.90;;;15.65;57.72;97739.03;4928713;29;20043;-45
2022/10/20 04:11:48;;;;;;;19.90;10.45;;;12.60;99.90;;;15.66;57.39;97724.59;4928134;29;20052;-47
2022/10/20 04:14:16;;;;;;;14.30;10.27;;;12.60;99.90;;;15.66;57.52;97724.59;4928228;29;20054;-45
2022/10/20 04:16:44;;;;;;;16.45;11.95;;;12.60;99.90;;;15.68;57.56;97735.13;4928372;29;20052;-46
2022/10/20 04:19:12;;;;;;;24.88;18.23;;;12.60;99.90;;;15.68;57.60;97724.41;4928289;29;20070;-45
2022/10/20 04:21:40;;;;;;;23.02;15.15;;;12.60;99.90;;;15.70;57.69;97719.69;4927833;29;20059;-46
2022/10/20 04:24:08;;;;;;;21.63;16.52;;;12.60;99.90;;;15.69;57.51;97716.16;4927950;29;20053;-50
2022/10/20 04:26:36;;;;;;;20.13;15.80;;;12.60;99.90;;;15.71;57.63;97715.97;4928414;29;20052;-46
2022/10/20 04:29:04;;;;;;;31.90;23.90;;;12.60;99.90;;;15.72;57.70;97714.94;4928193;29;20048;-45
2022/10/20 04:31:31;;;;;;;36.17;22.08;;;12.70;99.90;;;15.73;57.58;97713.97;4928180;29;20055;-45
2022/10/20 04:33:59;;;;;;;40.20;24.98;;;12.70;99.90;;;15.72;57.90;97717.63;4928179;29;20066;-46
2022/10/20 04:36:27;;;;;;;36.20;23.23;;;12.70;99.90;;;15.73;57.84;97708.59;4927251;29;20375;-44
2022/10/20 04:38:55;;;;;;;25.27;15.35;;;12.70;99.90;;;15.75;57.87;97707.38;4928112;29;20052;-45
2022/10/20 04:41:23;;;;;;;46.00;24.83;;;12.70;99.90;;;15.74;57.76;97700.38;4927891;29;20052;-46
2022/10/20 04:43:51;;;;;;;51.97;28.20;;;12.70;99.90;;;15.71;57.87;97708.75;4928135;29;20054;-45
2022/10/20 04:46:19;;;;;;;42.40;23.08;;;12.70;99.90;;;15.70;57.86;97707.09;4927534;29;20262;-44
2022/10/20 04:48:47;;;;;;;29.52;17.65;;;12.70;99.90;;;15.72;57.84;97713.13;4927739;29;20048;-45
2022/10/20 04:51:15;;;;;;;42.00;21.73;;;12.70;99.90;;;15.73;57.83;97705.91;4927757;29;20064;-45
2022/10/20 04:53:44;;;;;;;42.25;20.63;;;12.70;99.90;;;15.72;57.82;97699.69;4927945;29;20358;-44
2022/10/20 04:56:18;;;;;;;53.20;26.50;;;12.70;99.90;;;15.74;58.11;97704.88;4927334;29;20246;-47
2022/10/20 04:58:55;;;;;;;38.13;21.13;;;12.70;99.90;;;15.74;57.90;97699.50;4910346;29;20060;-47
2022/10/20 05:01:26;;;;;;;37.65;22.50;;;12.70;99.90;;;15.75;57.96;97690.44;4910196;29;20052;-45
2022/10/20 05:03:55;;;;;;;30.08;18.90;;;12.70;99.90;;;15.71;57.95;97692.66;4927739;29;20051;-44
2022/10/20 05:06:27;;;;;;;36.45;20.70;;;12.80;99.90;;;15.71;58.13;97689.97;4926541;29;20058;-45
2022/10/20 05:08:58;;;;;;;29.20;17.10;;;12.80;99.90;;;15.75;57.99;97685.09;4927655;29;20051;-44
2022/10/20 05:11:29;;;;;;;21.55;13.05;;;12.80;99.90;;;15.74;57.77;97688.78;4927652;29;20074;-48
2022/10/20 05:13:57;;;;;;;23.35;14.93;;;12.80;99.90;;;15.72;57.90;97694.31;4910769;29;20052;-46
2022/10/20 05:16:25;;;;;;;23.63;14.32;;;12.70;99.90;;;15.72;57.82;97686.28;4926792;29;20060;-51
2022/10/20 05:18:54;;;;;;;34.28;18.85;;;12.70;99.90;;;15.72;57.86;97686.28;4927268;29;20052;-47
2022/10/20 05:21:27;;;;;;;41.17;24.77;;;12.70;99.90;;;15.69;58.05;97678.59;4927180;29;20048;-45
2022/10/20 05:24:01;;;;;;;26.27;17.30;;;12.60;99.90;;;15.70;58.00;97685.63;4910206;29;20051;-47
2022/10/20 05:26:35;;;;;;;32.13;17.25;;;12.70;99.90;;;15.68;57.98;97682.31;4909843;29;20346;-48
2022/10/20 05:29:06;;;;;;;20.25;13.35;;;12.60;99.90;;;15.66;57.96;97676.28;4927078;29;20050;-48
2022/10/20 05:31:42;;;;;;;32.15;17.85;;;12.60;99.90;;;15.66;57.80;97673.59;4927158;29;20048;-46
2022/10/20 05:34:11;;;;;;;39.20;24.23;;;12.60;99.90;;;15.62;57.83;97658.09;4926505;29;20056;-45
2022/10/20 05:36:39;;;;;;;33.78;20.80;;;12.60;99.90;;;15.59;58.03;97651.25;4927030;29;20058;-46
2022/10/20 05:39:07;;;;;;;52.72;30.42;;;12.50;99.90;;;15.59;57.89;97650.44;4927033;29;20360;-45
2022/10/20 05:41:37;;;;;;;64.10;32.42;;;12.50;99.90;;;15.56;57.87;97652.47;4926919;29;20400;-44
2022/10/20 05:44:07;;;;;;;54.25;30.08;;;12.50;99.90;;;15.55;57.97;97650.00;4909841;29;20051;-46
2022/10/20 05:46:42;;;;;;;27.33;17.35;;;12.50;99.90;;;15.55;58.02;97655.38;4927237;29;20052;-45
2022/10/20 05:49:14;;;;;;;39.75;20.70;;;12.50;99.90;;;15.53;57.95;97641.31;4926991;29;20062;-49
2022/10/20 05:51:45;;;;;;;25.48;16.70;;;12.50;99.90;;;15.51;57.98;97643.34;4926772;29;20052;-46
2022/10/20 05:54:14;;;;;;;36.67;22.02;;;12.40;99.90;;;15.47;58.11;97642.06;4926450;29;20052;-48
2022/10/20 05:56:42;;;;;;;29.08;16.88;;;12.40;99.90;;;15.44;58.18;97629.88;4909674;29;20056;-48
2022/10/20 05:59:12;;;;;;;32.97;19.52;;;12.30;99.90;;;15.45;58.48;97631.53;4926680;29;20052;-48
2022/10/20 06:01:46;;;;;;;42.80;24.58;;;12.30;99.90;;;15.46;58.39;97638.56;4926128;29;20059;-46
2022/10/20 06:04:26;;;;;;;35.28;19.50;;;12.40;99.90;;;15.48;58.54;97647.22;4926233;29;20050;-46
2022/10/20 06:06:56;;;;;;;40.72;21.55;;;12.50;99.90;;;15.51;58.25;97646.03;4926367;29;20048;-45
2022/10/20 06:09:25;;;;;;;35.08;21.10;;;12.50;99.90;;;15.51;58.47;97644.19;4907045;29;20060;-44
2022/10/20 06:11:53;;;;;;;34.05;18.65;;;12.50;99.90;;;15.55;58.39;97652.69;4925188;29;20052;-45
2022/10/20 06:14:22;;;;;;;40.30;20.98;;;12.60;99.90;;;15.56;58.30;97654.31;4925936;29;20048;-46
2022/10/20 06:16:51;;;;;;;30.75;17.90;;;12.50;99.90;;;15.58;58.50;97654.13;4926127;29;20052;-46
2022/10/20 06:19:19;;;;;;;31.60;19.25;;;12.60;99.90;;;15.61;58.29;97659.94;4909719;29;20380;-47
2022/10/20 06:21:48;;;;;;;24.38;14.05;;;12.60;99.90;;;15.63;58.44;97657.91;4925935;29;20048;-45
2022/10/20 06:24:17;;;;;;;19.08;13.18;;;12.60;99.90;;;15.65;58.39;97655.84;4924287;29;20054;-46
2022/10/20 06:26:45;;;;;;;29.73;15.82;;;12.60;99.90;;;15.66;58.34;97664.72;4925918;29;20062;-48
2022/10/20 06:29:16;;;;;;;28.30;15.18;;;12.60;99.90;;;15.67;58.25;97674.47;4925913;29;20058;-49
2022/10/20 06:31:49;;;;;;;24.88;14.20;;;12.60;99.90;;;15.68;58.42;97673.41;4926095;29;20051;-49
2022/10/20 06:34:26;;;;;;;24.30;12.80;;;12.70;99.90;;;15.72;58.23;97670.16;4909470;29;20372;-48
2022/10/20 06:36:54;;;;;;;23.45;13.23;;;12.70;99.90;;;15.72;58.16;97666.63;4926012;29;20185;-46
2022/10/20 06:39:23;;;;;;;23.17;13.00;;;12.70;99.90;;;15.72;58.31;97656.75;4925622;29;20064;-49
2022/10/20 06:41:53;;;;;;;21.58;12.65;;;12.70;99.90;;;15.73;58.49;97655.75;4925411;29;20062;-49
2022/10/20 06:44:23;;;;;;;27.42;17.80;;;12.70;99.90;;;15.74;58.37;97669.97;4925427;29;20054;-46
2022/10/20 06:46:51;;;;;;;28.83;15.60;;;12.70;99.90;;;15.77;58.39;97674.97;4908933;29;20050;-47
2022/10/20 06:49:20;;;;;;;19.52;11.85;;;12.70;99.90;;;15.79;58.40;97680.16;4923346;29;20091;-47
2022/10/20 06:51:48;;;;;;;26.77;17.13;;;12.80;99.90;;;15.79;58.38;97680.16;4922817;29;20250;-46
2022/10/20 06:54:17;;;;;;;24.30;13.95;;;12.90;99.90;;;15.82;58.43;97675.25;4923206;29;20346;-48
2022/10/20 06:56:45;;;;;;;30.85;17.02;;;12.90;99.90;;;15.86;58.35;97678.38;4923558;29;20063;-49
2022/10/20 06:59:12;;;;;;;22.95;12.80;;;12.90;99.90;;;15.86;58.46;97673.81;4899253;29;20044;-47
2022/10/20 07:01:41;;;;;;;20.45;12.82;;;12.90;99.90;;;15.87;58.39;97669.28;4923776;29;20245;-46
2022/10/20 07:04:15;;;;;;;22.88;13.98;;;12.90;99.90;;;15.87;58.51;97666.59;4924400;29;20044;-48
2022/10/20 07:06:45;;;;;;;24.80;15.30;;;12.90;99.90;;;15.90;58.50;97655.47;4922561;29;20088;-45
2022/10/20 07:09:17;;;;;;;23.30;15.18;;;12.90;99.90;;;15.91;58.66;97663.31;4925272;29;20338;-45
2022/10/20 07:11:49;;;;;;;23.15;14.20;;;13.00;99.90;;;15.92;58.80;97658.78;4925011;29;20056;-45
2022/10/20 07:14:17;;;;;;;20.67;11.77;;;13.00;99.90;;;15.98;58.76;97663.38;4916496;29;20346;-49
2022/10/20 07:16:46;;;;;;;15.75;11.95;;;13.00;99.90;;;16.03;58.82;97670.84;4925038;29;20055;-48
2022/10/20 07:19:14;;;;;;;16.65;11.60;;;13.10;99.90;;;16.03;58.93;97674.38;4924066;29;20078;-50
2022/10/20 07:21:42;;;;;;;19.77;12.43;;;13.20;99.90;;;16.06;59.05;97691.94;4924704;29;20050;-47
2022/10/20 07:24:15;;;;;;;21.17;12.75;;;13.30;99.90;;;16.11;59.12;97690.34;4923400;29;20062;-48
2022/10/20 07:26:44;;;;;;;27.95;16.88;;;13.30;99.90;;;16.17;59.14;97666.38;4925249;29;20341;-50
2022/10/20 07:29:13;;;;;;;24.75;15.13;;;13.40;99.90;;;16.23;58.91;97676.38;4925628;29;20056;-48
2022/10/20 07:31:46;;;;;;;23.55;15.80;;;13.40;99.90;;;16.27;58.97;97675.78;4908429;29;20058;-47
2022/10/20 07:34:16;;;;;;;33.75;17.52;;;13.40;99.90;;;16.34;59.10;97689.22;4925310;29;20043;-48
2022/10/20 07:36:55;;;;;;;44.08;21.38;;;13.50;99.90;;;16.40;58.97;97683.09;4927275;29;20056;-51
2022/10/20 07:39:24;;;;;;;41.40;20.45;;;13.50;99.90;;;16.44;58.97;97695.09;4912838;29;20054;-46
2022/10/20 07:41:52;;;;;;;44.92;23.23;;;13.50;99.90;;;16.47;58.86;97689.31;4929095;29;20048;-47
2022/10/20 07:44:20;;;;;;;46.38;24.67;;;13.60;99.90;;;16.52;58.91;97696.81;4912041;29;20048;-50
2022/10/20 07:46:48;;;;;;;25.00;16.80;;;13.60;99.90;;;16.54;58.89;97690.19;4928929;29;20046;-46
2022/10/20 07:49:16;;;;;;;23.27;14.38;;;13.70;99.90;;;16.58;58.75;97692.50;4928647;29;20051;-46
2022/10/20 07:52:04;;;;;;;30.33;19.65;;;13.70;99.90;;;16.61;58.65;97682.16;4928826;29;20052;-46
2022/10/20 07:54:33;;;;;;;35.75;21.88;;;13.70;99.90;;;16.64;58.73;97675.56;4928503;29;20164;-45
2022/10/20 07:57:01;;;;;;;30.05;18.20;;;13.80;99.90;;;16.66;58.57;97686.97;4928574;29;20074;-45
2022/10/20 07:59:28;;;;;;;28.25;16.33;;;13.80;99.90;;;16.69;58.55;97689.22;4928537;29;20052;-46
2022/10/20 08:01:56;;;;;;;19.45;12.35;;;13.80;99.90;;;16.73;58.47;97687.81;4912084;29;20338;-46
2022/10/20 08:04:30;;;;;;;29.70;21.10;;;13.90;99.90;;;16.76;58.38;97675.84;4928293;29;20187;-45
2022/10/20 08:06:59;;;;;;;22.05;15.05;;;13.90;99.90;;;16.81;58.25;97684.97;4928831;29;20048;-47
2022/10/20 08:09:27;;;;;;;23.80;14.88;;;14.00;99.90;;;16.83;58.39;97672.19;4927394;29;20060;-45
2022/10/20 08:11:56;;;;;;;20.42;14.77;;;14.10;99.90;;;16.86;58.51;97665.56;4923096;29;20063;-46
2022/10/20 08:14:30;;;;;;;19.70;12.85;;;14.10;99.90;;;16.92;58.74;97664.75;4921199;29;20052;-46
2022/10/20 08:17:00;;;;;;;18.52;11.85;;;14.10;99.90;;;17.00;58.45;97656.53;4925043;29;20056;-46
2022/10/20 08:19:29;;;;;;;16.42;11.27;;;14.20;99.90;;;17.04;58.47;97652.41;4924713;29;20086;-47
2022/10/20 08:22:10;;;;;;;15.07;10.77;;;14.20;99.90;;;17.04;58.34;97644.34;4924009;29;20074;-49
2022/10/20 08:24:38;;;;;;;14.88;10.27;;;14.20;99.90;;;17.08;58.40;97647.44;4924585;29;20346;-46
2022/10/20 08:27:06;;;;;;;20.05;12.88;;;14.20;99.90;;;17.10;58.57;97656.16;4922903;29;20050;-45
2022/10/20 08:29:35;;;;;;;18.40;11.95;;;14.30;99.90;;;17.15;58.44;97652.84;4924859;29;20074;-45
2022/10/20 08:32:04;;;;;;;15.15;11.65;;;14.30;99.90;;;17.16;58.34;97651.78;4923281;29;20071;-46
2022/10/20 08:34:32;;;;;;;15.50;11.15;;;14.30;99.90;;;17.17;58.13;97659.66;4907564;29;20056;-45
2022/10/20 08:37:00;;;;;;;16.33;10.98;;;14.40;99.90;;;17.17;58.64;97651.59;4924170;29;20051;-45
2022/10/20 08:39:27;;;;;;;15.85;11.32;;;14.40;99.90;;;17.20;58.23;97651.19;4924074;29;20052;-45
2022/10/20 08:41:56;;;;;;;13.30;10.55;;;14.40;99.90;;;17.23;58.59;97661.53;4924948;29;20143;-47
2022/10/20 08:44:43;;;;;;;14.73;11.02;;;14.50;99.90;;;17.27;58.40;97662.81;4909515;29;20050;-48
2022/10/20 08:47:46;;;;;;;11.70;8.93;;;14.50;99.90;;;17.34;58.22;97670.06;4907858;29;20052;-47
2022/10/20 08:50:16;;;;;;;13.82;9.80;;;14.50;99.90;;;17.40;58.21;97669.25;4922463;29;20070;-47
2022/10/20 08:52:49;;;;;;;10.15;8.10;;;14.50;99.90;;;17.41;58.10;97684.34;4924454;29;20059;-47
2022/10/20 08:55:32;;;;;;;9.95;7.50;;;14.60;99.90;;;17.43;58.11;97675.06;4922821;29;20048;-48
2022/10/20 08:58:15;;;;;;;11.20;7.93;;;14.60;99.90;;;17.50;58.18;97685.81;4907042;29;20059;-45
2022/10/20 09:00:45;;;;;;;10.55;7.78;;;14.70;99.90;;;17.52;57.94;97675.66;4923045;29;20062;-46
2022/10/20 09:03:32;;;;;;;15.43;9.65;;;14.70;99.90;;;17.50;58.03;97667.78;4924122;29;20052;-45
2022/10/20 09:06:13;;;;;;;13.13;8.57;;;14.80;99.90;;;17.58;58.25;97656.00;4922624;29;20062;-45
2022/10/20 09:08:44;;;;;;;13.20;8.40;;;14.80;99.90;;;17.63;57.97;97668.88;4906785;29;20117;-49
2022/10/20 09:11:33;;;;;;;18.77;8.80;;;14.90;99.90;;;17.70;58.05;97677.78;4920837;29;20470;-46
2022/10/20 09:14:02;;;;;;;12.00;7.95;;;15.00;99.90;;;17.74;57.71;97670.94;4927352;29;20055;-46
2022/10/20 09:16:37;;;;;;;11.40;7.90;;;15.10;99.90;;;17.78;57.82;97669.50;4926955;29;20048;-46
2022/10/20 09:19:27;;;;;;;10.38;6.95;;;15.10;99.90;;;17.86;57.64;97668.50;4914319;29;20067;-46
2022/10/20 09:22:02;;;;;;;11.40;7.78;;;15.20;99.90;;;17.90;57.45;97680.50;4910390;29;20050;-47
2022/10/20 09:24:33;;;;;;;12.50;9.15;;;15.20;99.90;;;17.94;57.63;97678.25;4909541;29;20249;-48
2022/10/20 09:27:28;;;;;;;9.60;8.00;;;15.30;99.90;;;18.02;57.78;97688.78;4927151;29;20055;-46
2022/10/20 09:29:55;;;;;;;;;;;15.40;99.90;;;18.21;57.67;97687.94;4927719;29;20058;-46
2022/10/20 09:32:30;;;;;;;11.13;7.55;;;15.50;99.90;;;18.26;57.21;97676.53;4927047;29;19925;-46
2022/10/20 09:35:28;;;;;;;8.82;6.72;;;15.50;99.90;;;18.26;57.29;97685.47;4926331;29;20241;-45
2022/10/20 09:38:28;;;;;;;10.82;6.65;;;15.60;99.90;;;18.32;57.24;97696.44;4913989;29;20265;-45
2022/10/20 09:41:27;;;;;;;12.48;7.28;;;15.60;99.90;;;18.37;57.07;97696.63;4930519;29;20079;-46
2022/10/20 09:44:11;;;;;;;10.43;7.25;;;15.70;99.90;;;18.43;57.00;97695.78;4925648;29;20223;-46
2022/10/20 09:46:48;;;;;;;15.52;9.65;;;15.70;99.90;;;18.51;56.79;97692.88;4925898;29;20048;-45
2022/10/20 09:49:29;;;;;;;18.20;10.93;;;15.80;99.90;;;18.60;56.87;97690.78;4926665;29;20066;-48
2022/10/20 09:51:59;;;;;;;9.60;8.02;;;15.90;99.90;;;18.63;56.68;97688.50;4925755;29;20257;-48
2022/10/20 09:54:28;;;;;;;10.48;6.93;;;16.00;99.90;;;18.73;56.48;97692.59;4925955;29;20414;-48
2022/10/20 09:57:17;;;;;;;11.45;7.63;;;16.10;99.90;;;18.87;56.67;97697.78;4926664;29;20051;-46
2022/10/20 09:59:50;;;;;;;27.67;18.55;;;16.20;99.90;;;18.98;55.96;97701.69;4925672;29;20048;-46
2022/10/20 10:02:20;;;;;;;16.63;11.57;;;16.30;99.90;;;19.05;56.17;97691.69;4926199;29;20056;-46
2022/10/20 10:04:52;;;;;;;12.00;9.80;;;16.40;99.90;;;19.13;56.23;97693.31;4926004;29;20048;-45
2022/10/20 10:07:26;;;;;;;11.50;8.63;;;16.50;99.90;;;19.22;55.98;97685.81;4925343;29;20052;-47
2022/10/20 10:10:22;;;;;;;14.52;8.57;;;16.60;99.90;;;19.27;55.74;97672.50;4926609;29;20059;-46
2022/10/20 10:12:56;;;;;;;17.00;11.07;;;16.60;99.90;;;19.32;55.64;97663.75;4926117;29;20054;-49
2022/10/20 10:15:25;;;;;;;11.70;8.48;;;16.60;99.90;;;19.30;55.73;97680.16;4924680;29;20055;-47
2022/10/20 10:17:54;;;;;;;9.63;7.00;;;16.60;99.90;;;19.32;55.58;97693.44;4926422;29;20056;-49
2022/10/20 10:20:21;;;;;;;9.60;7.63;;;16.70;99.90;;;19.38;55.64;97681.78;4925408;29;20058;-45
2022/10/20 10:22:49;;;;;;;11.25;7.32;;;16.70;99.90;;;19.40;55.52;97696.69;4925914;29;20052;-47
2022/10/20 10:25:26;;;;;;;11.65;7.95;;;16.70;99.90;;;19.48;55.57;97690.22;4925891;29;20044;-47
2022/10/20 10:28:18;;;;;;;13.48;9.52;;;16.80;99.90;;;19.57;55.50;97680.00;4926059;29;20237;-45
2022/10/20 10:30:46;;;;;;;10.98;8.85;;;16.90;99.90;;;19.64;55.41;97686.19;4925335;29;20044;-47
2022/10/20 10:33:27;;;;;;;10.75;8.23;;;17.00;99.90;;;19.72;55.42;97691.34;4925835;29;20064;-45
2022/10/20 10:35:56;;;;;;;12.23;7.63;;;17.20;99.90;;;19.84;55.27;97696.88;4924174;29;20060;-49